createdAt,value
2023-03-03T00:00:44.049Z,99898.74
2023-03-03T00:01:47.613Z,99894.34
2023-03-03T00:02:50.339Z,99897.90
2023-03-03T00:03:53.418Z,99888.14
2023-03-03T00:04:56.346Z,99894.34
2023-03-03T00:05:59.178Z,99887.17
2023-03-03T00:07:02.045Z,99889.86
2023-03-03T00:08:04.851Z,99892.54
2023-03-03T00:09:08.133Z,99883.62
2023-03-03T00:10:12.383Z,99887.17
2023-03-03T00:11:15.175Z,99885.34
2023-03-03T00:12:25.206Z,99881.81
2023-03-03T00:13:28.231Z,99884.50
2023-03-03T00:14:32.221Z,99884.50
2023-03-03T00:15:34.950Z,99886.30
2023-03-03T00:18:07.841Z,99873.96
2023-03-03T00:19:16.856Z,99872.05
2023-03-03T00:20:29.929Z,99864.97
2023-03-03T00:21:35.535Z,99867.66
2023-03-03T00:22:39.672Z,99865.96
2023-03-03T00:23:43.857Z,99869.48
2023-03-03T00:24:47.313Z,99857.92
2023-03-03T00:25:51.133Z,99863.28
2023-03-03T00:28:33.346Z,99852.62
2023-03-03T00:29:48.310Z,99858.77
2023-03-03T00:30:52.855Z,99858.88
2023-03-03T00:31:55.789Z,99857.05
2023-03-03T00:32:58.667Z,99849.00
2023-03-03T00:35:37.034Z,99856.27
2023-03-03T00:36:40.037Z,99850.72
2023-03-03T00:37:43.210Z,99856.20
2023-03-03T00:38:47.630Z,99850.84
2023-03-03T00:39:50.313Z,99842.80
2023-03-03T00:40:53.561Z,99847.28
2023-03-03T00:41:58.038Z,99844.60
2023-03-03T00:43:01.056Z,99846.32
2023-03-03T00:45:44.158Z,99838.47
2023-03-03T00:46:47.185Z,99840.23
2023-03-03T00:47:50.545Z,99844.83
2023-03-03T00:48:53.393Z,99839.47
2023-03-03T00:50:09.775Z,99836.91
2023-03-03T00:51:31.681Z,99836.91
2023-03-03T00:52:39.995Z,99839.70
2023-03-03T00:53:43.864Z,99835.30
2023-03-03T00:54:46.675Z,99832.62
2023-03-03T00:55:50.399Z,99835.41
2023-03-03T00:56:53.249Z,99830.17
2023-03-03T00:57:55.854Z,99823.97
2023-03-03T00:58:59.271Z,99824.92
2023-03-03T01:00:03.614Z,99832.97
2023-03-03T01:01:07.206Z,99825.77
2023-03-03T01:02:11.608Z,99822.24
2023-03-03T01:03:16.937Z,99821.40
2023-03-03T01:04:19.979Z,99824.08
2023-03-03T01:05:23.886Z,99822.24
2023-03-03T01:06:27.608Z,99819.56
2023-03-03T01:07:30.325Z,99816.04
2023-03-03T01:08:33.005Z,99824.08
2023-03-03T01:09:36.850Z,99819.68
2023-03-03T01:11:54.224Z,99823.27
2023-03-03T01:12:57.985Z,99810.77
2023-03-03T01:14:00.809Z,99810.77
2023-03-03T01:16:18.512Z,99802.83
2023-03-03T01:17:21.192Z,99811.64
2023-03-03T01:18:25.698Z,99808.08
2023-03-03T01:19:29.692Z,99808.08
2023-03-03T01:20:32.715Z,99808.00
2023-03-03T01:21:35.579Z,99801.88
2023-03-03T01:22:38.518Z,99802.72
2023-03-03T01:23:41.213Z,99799.96
2023-03-03T01:24:46.258Z,99807.12
2023-03-03T01:25:48.786Z,99799.09
2023-03-03T01:26:52.524Z,99795.56
2023-03-03T01:27:55.082Z,99796.41
2023-03-03T01:28:57.751Z,99793.72
2023-03-03T01:30:00.729Z,99791.92
2023-03-03T01:31:04.264Z,99788.37
2023-03-03T01:32:07.482Z,99791.92
2023-03-03T01:33:10.283Z,99788.37
2023-03-03T01:34:13.006Z,99799.96
2023-03-03T01:35:15.598Z,99793.61
2023-03-03T01:36:24.587Z,99789.13
2023-03-03T01:37:27.503Z,99791.69
2023-03-03T01:38:30.222Z,99787.17
2023-03-03T01:39:33.355Z,99790.73
2023-03-03T01:40:36.721Z,99794.26
2023-03-03T01:41:40.290Z,99784.50
2023-03-03T01:42:43.209Z,99792.42
2023-03-03T01:43:48.130Z,99780.73
2023-03-03T01:44:54.413Z,99780.73
2023-03-03T01:46:01.255Z,99787.82
2023-03-03T01:47:15.481Z,99780.73
2023-03-03T01:48:26.368Z,99783.42
2023-03-03T01:50:56.835Z,99781.77
2023-03-03T01:52:02.675Z,99778.91
2023-03-03T01:53:06.482Z,99782.69
2023-03-03T01:54:16.176Z,99784.50
2023-03-03T01:55:22.189Z,99777.33
2023-03-03T01:56:26.161Z,99773.78
2023-03-03T01:57:33.640Z,99768.41
2023-03-03T01:59:51.357Z,99776.52
2023-03-03T02:00:58.029Z,99771.97
2023-03-03T02:02:01.761Z,99773.78
2023-03-03T02:03:04.567Z,99771.09
2023-03-03T02:04:07.376Z,99771.97
2023-03-03T02:05:10.721Z,99763.93
2023-03-03T02:06:15.481Z,99761.14
2023-03-03T02:07:19.458Z,99770.14
2023-03-03T02:08:25.712Z,99767.34
2023-03-03T02:10:01.254Z,99762.83
2023-03-03T02:11:04.251Z,99764.55
2023-03-03T02:12:08.973Z,99763.70
2023-03-03T02:13:11.944Z,99768.19
2023-03-03T02:14:15.316Z,99761.98
2023-03-03T02:15:24.908Z,99762.09
2023-03-03T02:16:27.812Z,99760.26
2023-03-03T02:17:30.520Z,99757.70
2023-03-03T02:18:33.355Z,99761.25
2023-03-03T02:19:51.681Z,99754.91
2023-03-03T02:21:07.062Z,99761.98
2023-03-03T02:22:10.105Z,99755.89
2023-03-03T02:23:42.503Z,99760.26
2023-03-03T02:26:09.982Z,99755.95
2023-03-03T02:27:14.112Z,99752.34
2023-03-03T02:28:18.198Z,99751.61
2023-03-03T02:29:21.648Z,99751.61
2023-03-03T02:30:24.569Z,99749.89
2023-03-03T02:31:28.399Z,99746.25
2023-03-03T02:32:31.297Z,99750.73
2023-03-03T02:33:34.068Z,99752.45
2023-03-03T02:36:00.843Z,99746.19
2023-03-03T02:37:03.496Z,99746.98
2023-03-03T02:38:30.598Z,99744.30
2023-03-03T02:39:33.339Z,99741.62
2023-03-03T02:40:38.000Z,99739.81
2023-03-03T02:41:51.472Z,99744.30
2023-03-03T02:42:54.090Z,99738.94
2023-03-03T02:44:12.349Z,99738.94
2023-03-03T02:45:15.405Z,99740.66
2023-03-03T02:46:19.152Z,99738.94
2023-03-03T02:47:22.043Z,99738.09
2023-03-03T02:48:25.773Z,99739.90
2023-03-03T02:49:33.798Z,99741.62
2023-03-03T02:50:36.935Z,99741.62
2023-03-03T02:51:41.729Z,99738.09
2023-03-03T02:52:44.510Z,99730.90
2023-03-03T02:53:47.272Z,99735.30
2023-03-03T02:54:50.367Z,99738.83
2023-03-03T02:55:54.414Z,99732.62
2023-03-03T02:56:58.113Z,99729.09
2023-03-03T02:58:02.999Z,99727.26
2023-03-03T02:59:05.831Z,99735.19
2023-03-03T03:00:11.719Z,99727.26
2023-03-03T03:01:14.529Z,99729.82
2023-03-03T03:02:18.779Z,99736.02
2023-03-03T03:03:21.967Z,99733.34
2023-03-03T03:04:25.831Z,99733.34
2023-03-03T03:05:28.757Z,99729.82
2023-03-03T03:06:32.889Z,99732.38
2023-03-03T03:07:36.539Z,99727.02
2023-03-03T03:08:39.509Z,99736.78
2023-03-03T03:09:42.724Z,99736.78
2023-03-03T03:10:45.462Z,99731.42
2023-03-03T03:11:48.454Z,99731.42
2023-03-03T03:12:52.341Z,99727.02
2023-03-03T03:13:55.206Z,99729.59
2023-03-03T03:14:58.257Z,99730.46
2023-03-03T03:16:01.080Z,99726.06
2023-03-03T03:17:05.182Z,99726.91
2023-03-03T03:18:08.092Z,99730.46
2023-03-03T03:19:11.543Z,99721.55
2023-03-03T03:20:16.485Z,99732.27
2023-03-03T03:21:19.217Z,99727.78
2023-03-03T03:22:22.565Z,99722.42
2023-03-03T03:23:25.721Z,99723.27
2023-03-03T03:24:30.346Z,99719.74
2023-03-03T03:25:35.391Z,99725.95
2023-03-03T03:26:38.412Z,99725.10
2023-03-03T03:27:41.443Z,99723.27
2023-03-03T03:28:44.109Z,99726.91
2023-03-03T03:29:47.999Z,99717.91
2023-03-03T03:30:51.219Z,99720.59
2023-03-03T03:31:54.393Z,99717.06
2023-03-03T03:32:57.343Z,99718.87
2023-03-03T03:34:00.185Z,99721.42
2023-03-03T03:35:02.885Z,99712.55
2023-03-03T03:36:07.821Z,99710.70
2023-03-03T03:37:10.525Z,99714.38
2023-03-03T03:38:14.229Z,99713.39
2023-03-03T03:39:17.358Z,99709.02
2023-03-03T03:40:22.056Z,99711.70
2023-03-03T03:41:24.903Z,99709.02
2023-03-03T03:42:27.549Z,99703.66
2023-03-03T03:43:30.506Z,99707.19
2023-03-03T03:44:33.451Z,99699.98
2023-03-03T03:45:36.483Z,99709.75
2023-03-03T03:46:39.235Z,99701.70
2023-03-03T03:47:42.556Z,99702.55
2023-03-03T03:48:45.308Z,99708.78
2023-03-03T03:49:48.550Z,99697.11
2023-03-03T03:50:52.314Z,99692.70
2023-03-03T03:51:55.311Z,99691.74
2023-03-03T03:52:59.822Z,99697.95
2023-03-03T03:54:04.227Z,99698.79
2023-03-03T03:55:08.248Z,99696.11
2023-03-03T03:56:11.269Z,99695.15
2023-03-03T03:57:14.025Z,99689.78
2023-03-03T03:58:18.304Z,99692.47
2023-03-03T03:59:22.826Z,99695.15
2023-03-03T04:00:25.498Z,99695.15
2023-03-03T04:01:29.213Z,99692.47
2023-03-03T04:02:32.612Z,99689.78
2023-03-03T04:03:35.734Z,99695.15
2023-03-03T04:04:40.397Z,99691.50
2023-03-03T04:05:43.325Z,99689.66
2023-03-03T04:06:46.185Z,99691.50
2023-03-03T04:07:49.480Z,99687.95
2023-03-03T04:08:54.856Z,99686.98
2023-03-03T04:09:57.954Z,99689.66
2023-03-03T04:11:00.822Z,99685.19
2023-03-03T04:12:03.841Z,99681.63
2023-03-03T04:13:06.554Z,99688.70
2023-03-03T04:14:10.275Z,99685.19
2023-03-03T04:15:13.490Z,99677.14
2023-03-03T04:16:16.608Z,99683.34
2023-03-03T04:17:20.584Z,99675.30
2023-03-03T04:18:23.342Z,99671.78
2023-03-03T04:19:26.937Z,99673.59
2023-03-03T04:20:30.021Z,99670.78
2023-03-03T04:21:34.314Z,99660.06
2023-03-03T04:22:37.641Z,99668.11
2023-03-03T04:23:41.191Z,99670.78
2023-03-03T04:24:47.753Z,99664.46
2023-03-03T04:25:51.635Z,99665.42
2023-03-03T04:26:54.728Z,99660.06
2023-03-03T04:27:57.501Z,99664.58
2023-03-03T04:29:01.418Z,99661.91
2023-03-03T04:30:05.967Z,99667.27
2023-03-03T04:31:10.973Z,99665.42
2023-03-03T04:32:13.859Z,99664.46
2023-03-03T04:33:17.255Z,99658.26
2023-03-03T04:34:21.120Z,99662.74
2023-03-03T04:35:25.719Z,99657.38
2023-03-03T04:36:29.196Z,99652.90
2023-03-03T04:37:33.185Z,99655.58
2023-03-03T04:38:36.291Z,99654.58
2023-03-03T04:39:38.945Z,99653.74
2023-03-03T04:40:42.204Z,99659.95
2023-03-03T04:41:45.206Z,99651.06
2023-03-03T04:42:48.339Z,99658.14
2023-03-03T04:43:51.211Z,99654.58
2023-03-03T04:44:56.167Z,99646.54
2023-03-03T04:45:59.291Z,99645.58
2023-03-03T04:47:02.000Z,99650.09
2023-03-03T04:48:05.640Z,99644.73
2023-03-03T04:49:12.411Z,99633.98
2023-03-03T04:50:14.963Z,99645.58
2023-03-03T04:51:18.249Z,99644.62
2023-03-03T04:52:21.131Z,99641.06
2023-03-03T04:53:25.112Z,99643.74
2023-03-03T04:54:29.216Z,99652.66
2023-03-03T04:55:31.838Z,99644.62
2023-03-03T04:56:34.662Z,99648.14
2023-03-03T04:57:37.620Z,99646.42
2023-03-03T04:58:40.212Z,99641.06
2023-03-03T04:59:44.272Z,99646.42
2023-03-03T05:00:48.575Z,99648.14
2023-03-03T05:01:52.032Z,99644.62
2023-03-03T05:02:56.157Z,99647.30
2023-03-03T05:03:59.869Z,99648.14
2023-03-03T05:05:03.922Z,99645.45
2023-03-03T05:07:21.027Z,99645.52
2023-03-03T05:08:23.695Z,99644.50
2023-03-03T05:09:26.825Z,99649.86
2023-03-03T05:10:31.164Z,99652.53
2023-03-03T05:11:34.227Z,99653.27
2023-03-03T05:12:36.812Z,99653.27
2023-03-03T05:13:42.598Z,99654.14
2023-03-03T05:14:45.246Z,99648.77
2023-03-03T05:15:51.704Z,99649.62
2023-03-03T05:16:54.659Z,99647.81
2023-03-03T05:17:58.597Z,99642.45
2023-03-03T05:19:01.061Z,99645.97
2023-03-03T05:20:05.347Z,99640.61
2023-03-03T05:21:09.100Z,99648.66
2023-03-03T05:22:13.082Z,99645.97
2023-03-03T05:23:17.003Z,99641.45
2023-03-03T05:24:20.045Z,99638.77
2023-03-03T05:25:22.976Z,99643.29
2023-03-03T05:26:26.324Z,99644.13
2023-03-03T05:27:29.525Z,99641.45
2023-03-03T05:28:32.587Z,99641.45
2023-03-03T05:29:34.993Z,99634.41
2023-03-03T05:30:38.825Z,99636.09
2023-03-03T05:31:42.840Z,99637.09
2023-03-03T05:32:46.482Z,99637.93
2023-03-03T05:33:48.771Z,99637.09
2023-03-03T05:34:51.915Z,99637.09
2023-03-03T05:35:56.459Z,99636.21
2023-03-03T05:37:00.187Z,99636.21
2023-03-03T05:38:05.490Z,99630.84
2023-03-03T05:39:08.699Z,99636.21
2023-03-03T05:40:17.097Z,99641.58
2023-03-03T05:41:20.018Z,99637.17
2023-03-03T05:42:22.785Z,99638.89
2023-03-03T05:43:25.725Z,99637.17
2023-03-03T05:44:28.878Z,99637.17
2023-03-03T05:45:32.013Z,99639.02
2023-03-03T05:46:36.178Z,99633.66
2023-03-03T05:47:39.648Z,99630.13
2023-03-03T05:48:43.513Z,99640.73
2023-03-03T05:49:46.167Z,99629.13
2023-03-03T05:50:48.769Z,99628.29
2023-03-03T05:51:51.111Z,99635.48
2023-03-03T05:52:53.711Z,99630.13
2023-03-03T05:53:56.709Z,99625.61
2023-03-03T05:54:59.130Z,99632.81
2023-03-03T05:56:02.121Z,99629.25
2023-03-03T05:57:04.632Z,99623.05
2023-03-03T05:58:07.504Z,99624.89
2023-03-03T05:59:10.139Z,99627.56
2023-03-03T06:00:13.938Z,99625.73
2023-03-03T06:01:16.663Z,99625.85
2023-03-03T06:02:19.329Z,99618.66
2023-03-03T06:03:22.155Z,99617.81
2023-03-03T06:04:25.320Z,99621.33
2023-03-03T06:05:28.143Z,99620.49
2023-03-03T06:06:30.957Z,99627.66
2023-03-03T06:07:33.521Z,99628.53
2023-03-03T06:08:36.981Z,99619.62
2023-03-03T06:09:39.985Z,99616.09
2023-03-03T06:10:42.604Z,99627.66
2023-03-03T06:11:46.012Z,99626.81
2023-03-03T06:12:49.298Z,99624.13
2023-03-03T06:13:51.959Z,99616.09
2023-03-03T06:14:54.812Z,99607.20
2023-03-03T06:15:57.431Z,99617.06
2023-03-03T06:17:00.102Z,99617.06
2023-03-03T06:18:03.446Z,99607.20
2023-03-03T06:19:06.061Z,99614.38
2023-03-03T06:20:11.296Z,99617.06
2023-03-03T06:21:13.907Z,99604.53
2023-03-03T06:22:16.276Z,99616.94
2023-03-03T06:23:18.735Z,99608.17
2023-03-03T06:24:23.246Z,99613.53
2023-03-03T06:25:26.228Z,99615.25
2023-03-03T06:26:31.345Z,99613.53
2023-03-03T06:27:34.457Z,99617.94
2023-03-03T06:28:37.161Z,99618.05
2023-03-03T06:29:40.237Z,99604.65
2023-03-03T06:30:43.264Z,99608.17
2023-03-03T06:31:48.944Z,99611.81
2023-03-03T06:32:51.944Z,99616.22
2023-03-03T06:33:54.607Z,99615.38
2023-03-03T06:34:57.913Z,99614.50
2023-03-03T06:36:01.174Z,99614.50
2023-03-03T06:37:04.873Z,99618.89
2023-03-03T06:38:07.714Z,99614.50
2023-03-03T06:39:10.165Z,99612.69
2023-03-03T06:40:16.052Z,99621.58
2023-03-03T06:41:18.956Z,99607.33
2023-03-03T06:42:23.488Z,99616.22
2023-03-03T06:43:26.893Z,99616.22
2023-03-03T06:44:29.546Z,99611.81
2023-03-03T06:45:32.485Z,99610.97
2023-03-03T06:46:35.762Z,99614.50
2023-03-03T06:47:38.846Z,99604.65
2023-03-03T06:48:42.572Z,99603.77
2023-03-03T06:49:45.095Z,99604.65
2023-03-03T06:50:48.517Z,99610.02
2023-03-03T06:51:51.460Z,99606.45
2023-03-03T06:54:14.660Z,99600.40
2023-03-03T06:55:20.990Z,99594.89
2023-03-03T06:56:24.673Z,99596.73
2023-03-03T06:57:29.521Z,99595.86
2023-03-03T06:58:32.947Z,99588.69
2023-03-03T06:59:35.853Z,99596.73
2023-03-03T07:00:38.530Z,99598.53
2023-03-03T07:01:42.386Z,99592.33
2023-03-03T07:02:45.390Z,99586.97
2023-03-03T07:03:48.833Z,99591.37
2023-03-03T07:04:54.633Z,99601.22
2023-03-03T07:05:57.585Z,99595.02
2023-03-03T07:07:02.765Z,99589.66
2023-03-03T07:09:24.272Z,99585.28
2023-03-03T07:10:28.593Z,99586.09
2023-03-03T07:11:31.379Z,99586.22
2023-03-03T07:12:34.928Z,99586.97
2023-03-03T07:13:37.472Z,99592.45
2023-03-03T07:14:44.351Z,99590.61
2023-03-03T07:15:48.206Z,99587.94
2023-03-03T07:18:12.113Z,99596.97
2023-03-03T07:19:25.352Z,99597.81
2023-03-03T07:20:32.318Z,99583.66
2023-03-03T07:21:36.874Z,99582.81
2023-03-03T07:22:39.379Z,99588.18
2023-03-03T07:23:42.952Z,99591.82
2023-03-03T07:24:47.164Z,99582.94
2023-03-03T07:25:50.273Z,99580.38
2023-03-03T07:26:55.039Z,99589.27
2023-03-03T07:28:18.116Z,99584.75
2023-03-03T07:29:26.203Z,99586.58
2023-03-03T07:30:29.079Z,99583.06
2023-03-03T07:31:36.767Z,99580.38
2023-03-03T07:32:41.300Z,99577.79
2023-03-03T07:33:44.806Z,99574.27
2023-03-03T07:34:47.878Z,99575.23
2023-03-03T07:35:50.631Z,99578.78
2023-03-03T07:38:23.930Z,99577.09
2023-03-03T07:39:33.262Z,99569.15
2023-03-03T07:40:42.672Z,99577.19
2023-03-03T07:41:47.791Z,99570.98
2023-03-03T07:42:51.441Z,99572.79
2023-03-03T07:44:24.906Z,99578.16
2023-03-03T07:45:37.950Z,99571.95
2023-03-03T07:46:45.755Z,99569.39
2023-03-03T07:47:48.376Z,99567.55
2023-03-03T07:48:51.526Z,99568.52
2023-03-03T07:51:28.501Z,99567.58
2023-03-03T07:52:34.500Z,99566.71
2023-03-03T07:53:37.712Z,99573.87
2023-03-03T07:54:42.383Z,99568.52
2023-03-03T07:55:45.224Z,99570.36
2023-03-03T07:56:47.736Z,99568.64
2023-03-03T07:57:50.755Z,99564.16
2023-03-03T07:58:55.721Z,99568.52
2023-03-03T08:00:17.870Z,99567.67
2023-03-03T08:01:43.917Z,99560.48
2023-03-03T08:03:03.318Z,99564.03
2023-03-03T08:04:15.858Z,99566.71
2023-03-03T08:05:31.254Z,99566.71
2023-03-03T08:06:49.184Z,99557.92
2023-03-03T08:07:53.949Z,99553.44
2023-03-03T08:09:12.886Z,99558.04
2023-03-03T08:10:48.231Z,99550.97
2023-03-03T08:13:21.338Z,99561.83
2023-03-03T08:14:36.265Z,99562.77
2023-03-03T08:15:40.211Z,99554.84
2023-03-03T08:16:43.385Z,99567.41
2023-03-03T08:17:46.054Z,99555.72
2023-03-03T08:18:51.140Z,99561.08
2023-03-03T08:19:53.641Z,99553.89
2023-03-03T08:22:16.443Z,99557.08
2023-03-03T08:23:19.937Z,99558.01
2023-03-03T08:24:22.691Z,99546.54
2023-03-03T08:25:25.524Z,99547.41
2023-03-03T08:26:30.486Z,99537.78
2023-03-03T08:27:32.928Z,99542.30
2023-03-03T08:28:35.264Z,99544.46
2023-03-03T08:29:37.869Z,99533.98
2023-03-03T08:30:40.770Z,99542.02
2023-03-03T08:31:43.261Z,99534.11
2023-03-03T08:32:46.346Z,99546.63
2023-03-03T08:33:50.904Z,99538.95
2023-03-03T08:34:53.462Z,99540.98
2023-03-03T08:35:56.053Z,99545.63
2023-03-03T08:36:59.728Z,99537.70
2023-03-03T08:38:02.939Z,99531.48
2023-03-03T08:39:06.372Z,99529.79
2023-03-03T08:40:11.122Z,99531.56
2023-03-03T08:41:13.765Z,99531.68
2023-03-03T08:42:17.336Z,99529.84
2023-03-03T08:43:21.797Z,99525.48
2023-03-03T08:44:24.773Z,99530.84
2023-03-03T08:45:27.501Z,99537.03
2023-03-03T08:46:30.779Z,99541.55
2023-03-03T08:47:33.536Z,99526.45
2023-03-03T08:48:36.789Z,99533.64
2023-03-03T08:49:40.504Z,99525.60
2023-03-03T08:50:44.010Z,99523.77
2023-03-03T08:51:46.611Z,99522.92
2023-03-03T08:52:49.249Z,99527.41
2023-03-03T08:53:52.943Z,99521.33
2023-03-03T08:54:56.468Z,99518.02
2023-03-03T08:55:59.089Z,99512.89
2023-03-03T08:57:02.458Z,99512.89
2023-03-03T08:58:04.927Z,99507.78
2023-03-03T09:00:15.423Z,99517.12
2023-03-03T09:01:18.544Z,99509.21
2023-03-03T09:02:21.935Z,99511.89
2023-03-03T09:03:24.456Z,99510.89
2023-03-03T09:04:27.040Z,99511.77
2023-03-03T09:05:31.137Z,99525.88
2023-03-03T09:06:34.594Z,99501.91
2023-03-03T09:07:37.780Z,99501.91
2023-03-03T09:08:41.226Z,99509.38
2023-03-03T09:09:43.754Z,99508.27
2023-03-03T09:10:48.156Z,99508.27
2023-03-03T09:13:12.948Z,99517.97
2023-03-03T09:14:18.645Z,99500.87
2023-03-03T09:15:25.957Z,99495.39
2023-03-03T09:16:30.124Z,99502.47
2023-03-03T09:17:33.881Z,99492.59
2023-03-03T09:18:37.624Z,99496.98
2023-03-03T09:19:40.165Z,99492.36
2023-03-03T09:20:50.037Z,99492.36
2023-03-03T09:21:54.353Z,99487.88
2023-03-03T09:22:58.052Z,99491.31
2023-03-03T09:24:00.717Z,99486.95
2023-03-03T09:25:03.420Z,99492.19
2023-03-03T09:26:20.494Z,99491.19
2023-03-03T09:27:29.120Z,99488.52
2023-03-03T09:28:32.174Z,99496.45
2023-03-03T09:29:36.841Z,99488.42
2023-03-03T09:30:44.149Z,99481.23
2023-03-03T09:32:01.595Z,99488.30
2023-03-03T09:34:38.034Z,99478.46
2023-03-03T09:35:41.866Z,99483.78
2023-03-03T09:36:44.376Z,99479.39
2023-03-03T09:37:47.255Z,99478.44
2023-03-03T09:38:50.328Z,99470.40
2023-03-03T09:41:33.236Z,99477.50
2023-03-03T09:44:17.702Z,99476.53
2023-03-03T09:45:53.181Z,99479.19
2023-03-03T09:47:14.649Z,99470.28
2023-03-03T09:48:33.392Z,99470.28
2023-03-03T09:49:57.506Z,99464.08
2023-03-03T09:52:35.046Z,99449.95
2023-03-03T09:53:56.200Z,99454.45
2023-03-03T09:55:18.003Z,99456.28
2023-03-03T09:56:36.615Z,99449.22
2023-03-03T09:58:11.502Z,99447.38
2023-03-03T09:59:31.898Z,99447.38
2023-03-03T10:00:51.557Z,99442.02
2023-03-03T10:02:22.559Z,99440.31
2023-03-03T10:03:47.072Z,99436.79
2023-03-03T10:06:33.446Z,99429.73
2023-03-03T10:07:46.263Z,99427.05
2023-03-03T10:09:07.554Z,99428.87
2023-03-03T10:10:40.462Z,99425.36
2023-03-03T10:12:02.731Z,99425.36
2023-03-03T10:13:16.050Z,99436.91
2023-03-03T10:14:44.491Z,99421.69
2023-03-03T10:17:35.371Z,99418.19
2023-03-03T10:20:21.086Z,99402.23
2023-03-03T10:21:31.174Z,99416.33
2023-03-03T10:23:07.203Z,99404.78
2023-03-03T10:24:16.505Z,99403.81
2023-03-03T10:25:41.802Z,99411.73
2023-03-03T10:27:12.128Z,99411.73
2023-03-03T10:28:30.328Z,99400.14
2023-03-03T10:29:47.127Z,99398.34
2023-03-03T10:31:09.198Z,99396.50
2023-03-03T10:33:38.989Z,99389.48
2023-03-03T10:34:51.933Z,99392.02
2023-03-03T10:37:57.337Z,99392.03
2023-03-03T10:39:20.798Z,99381.31
2023-03-03T10:40:49.795Z,99380.44
2023-03-03T10:41:59.082Z,99366.08
2023-03-03T10:43:29.756Z,99369.60
2023-03-03T10:44:25.792Z,99372.28
2023-03-03T10:45:42.559Z,99369.48
2023-03-03T10:46:52.188Z,99369.48
2023-03-03T10:48:22.353Z,99358.67
2023-03-03T10:49:53.281Z,99359.52
2023-03-03T10:52:40.790Z,99356.84
2023-03-03T10:54:03.378Z,99367.55
2023-03-03T10:55:21.656Z,99353.31
2023-03-03T10:56:33.657Z,99348.92
2023-03-03T10:58:08.501Z,99261.22
2023-03-03T10:59:26.453Z,99342.70
2023-03-03T11:02:22.630Z,99332.98
2023-03-03T11:03:55.476Z,99333.95
2023-03-03T11:05:12.427Z,99334.78
2023-03-03T11:07:59.003Z,99329.34
2023-03-03T11:10:51.672Z,99328.22
2023-03-03T11:12:15.889Z,99333.58
2023-03-03T11:13:45.220Z,99320.06
2023-03-03T11:14:53.348Z,99339.67
2023-03-03T11:15:59.875Z,99328.84
2023-03-03T11:17:12.334Z,99324.20
2023-03-03T11:18:52.550Z,99320.68
2023-03-03T11:20:12.456Z,99323.23
2023-03-03T11:21:25.380Z,99315.08
2023-03-03T11:22:34.886Z,99316.91
2023-03-03T11:25:27.499Z,99306.91
2023-03-03T11:26:53.915Z,99315.83
2023-03-03T11:28:08.581Z,99310.47
2023-03-03T11:29:22.155Z,99319.34
2023-03-03T11:30:30.685Z,99317.50
2023-03-03T11:31:36.937Z,99312.14
2023-03-03T11:34:34.304Z,99306.69
2023-03-03T11:35:56.882Z,99308.50
2023-03-03T11:37:06.948Z,99303.89
2023-03-03T11:38:24.171Z,99303.89
2023-03-03T11:39:27.037Z,99295.86
2023-03-03T11:40:53.337Z,99298.53
2023-03-03T11:42:19.305Z,99301.21
2023-03-03T11:43:37.109Z,99303.89
2023-03-03T11:44:40.409Z,99298.53
2023-03-03T11:45:48.896Z,99296.82
2023-03-03T11:46:54.904Z,99286.11
2023-03-03T11:49:39.060Z,99304.01
2023-03-03T11:52:39.167Z,99285.37
2023-03-03T11:55:30.919Z,99285.37
2023-03-03T11:57:53.650Z,99283.80
2023-03-03T11:59:26.114Z,99287.33
2023-03-03T12:00:45.918Z,99281.97
2023-03-03T12:01:52.312Z,99289.16
2023-03-03T12:04:14.137Z,99278.56
2023-03-03T12:05:41.680Z,99286.48
2023-03-03T12:07:03.930Z,99287.33
2023-03-03T12:08:19.533Z,99283.81
2023-03-03T12:09:29.121Z,99279.29
2023-03-03T12:10:41.985Z,99285.48
2023-03-03T12:11:53.991Z,99294.39
2023-03-03T12:13:05.032Z,99281.00
2023-03-03T12:14:20.296Z,99277.33
2023-03-03T12:15:35.397Z,99274.64
2023-03-03T12:17:00.738Z,99288.91
2023-03-03T12:18:23.057Z,99279.91
2023-03-03T12:19:41.904Z,99270.88
2023-03-03T12:20:51.768Z,99276.23
2023-03-03T12:22:15.583Z,99259.34
2023-03-03T12:23:27.626Z,99270.88
2023-03-03T12:24:53.568Z,99254.80
2023-03-03T12:26:11.874Z,99269.07
2023-03-03T12:27:21.214Z,99268.07
2023-03-03T12:30:16.676Z,99267.21
2023-03-03T12:31:41.785Z,99275.14
2023-03-03T12:33:05.731Z,99256.39
2023-03-03T12:34:24.183Z,99266.27
2023-03-03T12:35:46.591Z,99257.35
2023-03-03T12:37:10.319Z,99257.35
2023-03-03T12:40:05.790Z,99263.69
2023-03-03T12:41:19.557Z,99255.67
2023-03-03T12:42:32.906Z,99252.13
2023-03-03T12:43:49.176Z,99246.77
2023-03-03T12:47:07.206Z,99245.00
2023-03-03T12:48:21.038Z,99240.81
2023-03-03T12:49:26.726Z,99248.58
2023-03-03T12:51:00.295Z,99245.03
2023-03-03T12:53:54.029Z,99239.74
2023-03-03T12:55:12.802Z,99259.40
2023-03-03T12:56:19.848Z,99253.05
2023-03-03T12:57:42.732Z,99239.73
2023-03-03T12:59:01.521Z,99250.59
2023-03-03T13:00:21.418Z,99237.27
2023-03-03T13:01:34.475Z,99241.09
2023-03-03T13:02:52.670Z,99258.25
2023-03-03T13:04:07.171Z,99255.02
2023-03-03T13:05:14.502Z,99248.25
2023-03-03T13:06:31.001Z,99241.58
2023-03-03T13:09:00.006Z,99232.63
2023-03-03T13:10:22.937Z,99228.61
2023-03-03T13:11:35.060Z,99234.46
2023-03-03T13:13:06.269Z,99242.84
2023-03-03T13:14:18.925Z,99231.67
2023-03-03T13:15:32.178Z,99224.02
2023-03-03T13:16:41.000Z,99223.52
2023-03-03T13:17:42.660Z,99219.62
2023-03-03T13:20:29.334Z,99217.22
2023-03-03T13:21:58.349Z,99214.14
2023-03-03T13:23:09.617Z,99213.88
2023-03-03T13:24:29.041Z,99212.70
2023-03-03T13:25:43.152Z,99208.09
2023-03-03T13:26:55.406Z,99211.38
2023-03-03T13:28:04.809Z,99211.13
2023-03-03T13:29:26.207Z,99208.33
2023-03-03T13:31:56.446Z,99213.27
2023-03-03T13:33:19.233Z,99213.17
2023-03-03T13:34:42.106Z,99206.01
2023-03-03T13:35:50.452Z,99206.72
2023-03-03T13:38:22.205Z,99192.20
2023-03-03T13:39:33.388Z,99208.30
2023-03-03T13:40:40.364Z,99197.59
2023-03-03T13:41:59.253Z,99200.98
2023-03-03T13:43:08.121Z,99198.20
2023-03-03T13:45:51.595Z,99208.17
2023-03-03T13:47:13.965Z,99202.69
2023-03-03T13:48:35.672Z,99188.45
2023-03-03T13:50:59.785Z,99191.94
2023-03-03T13:53:30.687Z,99181.34
2023-03-03T13:54:53.444Z,99185.91
2023-03-03T13:56:05.554Z,99182.22
2023-03-03T13:57:36.925Z,99182.12
2023-03-03T14:00:28.589Z,99181.09
2023-03-03T14:01:44.034Z,99182.00
2023-03-03T14:03:17.633Z,99175.77
2023-03-03T14:04:27.070Z,99180.29
2023-03-03T14:06:54.242Z,99167.83
2023-03-03T14:08:09.359Z,99173.09
2023-03-03T14:09:28.506Z,99179.31
2023-03-03T14:10:36.590Z,99170.41
2023-03-03T14:11:57.349Z,99184.67
2023-03-03T14:14:36.777Z,99165.75
2023-03-03T14:15:55.115Z,99164.83
2023-03-03T14:17:20.302Z,99166.50
2023-03-03T14:18:30.466Z,99173.58
2023-03-03T14:19:35.541Z,99170.05
2023-03-03T14:20:41.509Z,99167.25
2023-03-03T14:21:57.334Z,99162.86
2023-03-03T14:23:17.198Z,99161.02
2023-03-03T14:24:23.340Z,99155.53
2023-03-03T14:25:27.550Z,99155.53
2023-03-03T14:26:30.801Z,99086.98
2023-03-03T14:27:48.325Z,99154.56
2023-03-03T14:28:52.427Z,99148.23
2023-03-03T14:29:55.010Z,99153.59
2023-03-03T14:30:58.857Z,99148.10
2023-03-03T14:32:03.635Z,99147.13
2023-03-03T14:33:12.815Z,99143.48
2023-03-03T14:34:24.817Z,99151.39
2023-03-03T14:36:42.931Z,99147.69
2023-03-03T14:37:46.455Z,99142.34